Time;durP1;ratioP1;P1;durP2;ratioP2;P2;SDS_P1;SDS_P2;PMS_P1;PMS_P2;Temp;Humidity;BMP_temperature;BMP_pressure;BME280_temperature;BME280_humidity;BME280_pressure;Samples;Min_cycle;Max_cycle;Signal;HPM_P1;HPM_P2
2023/08/27 00:00:18;;;;;;;27.08;17.67;;;;;;;21.11;65.79;101323.25;5094175;28;20071;-46
2023/08/27 00:02:45;;;;;;;27.95;17.17;;;;;;;21.04;66.43;101325.38;5094112;28;20111;-47
2023/08/27 00:05:11;;;;;;;26.70;17.98;;;;;;;21.18;66.42;101323.00;5094086;28;20026;-46
2023/08/27 00:07:37;;;;;;;27.90;18.05;;;;;;;20.95;66.55;101319.63;5093747;28;20169;-46
2023/08/27 00:10:04;;;;;;;30.98;18.15;;;;;;;20.95;67.06;101321.53;5095533;28;20016;-45
2023/08/27 00:12:30;;;;;;;25.33;17.48;;;;;;;20.71;68.08;101312.94;5114064;28;20473;-45
2023/08/27 00:14:56;;;;;;;27.50;17.85;;;;;;;20.54;68.17;101322.09;5092047;28;20035;-45
2023/08/27 00:17:23;;;;;;;25.27;17.58;;;;;;;20.57;67.94;101309.88;5089861;28;20122;-45
2023/08/27 00:19:49;;;;;;;27.40;17.92;;;;;;;20.26;69.44;101317.75;5093995;28;20024;-45
2023/08/27 00:22:15;;;;;;;25.80;18.85;;;;;;;20.30;69.35;101321.59;5093837;28;20347;-45
2023/08/27 00:24:41;;;;;;;30.40;18.25;;;;;;;20.29;70.24;101319.13;5091713;28;20359;-45
2023/08/27 00:27:08;;;;;;;26.05;17.98;;;;;;;20.18;70.58;101326.38;5093498;28;20024;-44
2023/08/27 00:29:34;;;;;;;29.83;19.00;;;;;;;20.06;70.60;101320.28;5093726;28;20059;-46
2023/08/27 00:32:00;;;;;;;30.73;19.00;;;;;;;20.07;71.07;101326.53;5092900;28;20777;-45
2023/08/27 00:34:34;;;;;;;29.80;18.98;;;;;;;19.94;71.59;101327.78;5083199;28;20093;-45
2023/08/27 00:37:01;;;;;;;31.83;20.23;;;;;;;19.80;71.92;101321.09;5073350;28;20040;-44
2023/08/27 00:39:29;;;;;;;31.58;19.77;;;;;;;19.58;72.52;101323.81;5084946;28;20032;-58
2023/08/27 00:41:56;;;;;;;27.38;19.17;;;;;;;19.44;73.36;101324.22;5093379;28;20028;-43
2023/08/27 00:44:22;;;;;;;29.73;18.55;;;;;;;19.63;73.53;101322.00;5093390;28;20023;-42
2023/08/27 00:46:50;;;;;;;31.55;20.88;;;;;;;19.21;74.29;101319.03;5093126;28;20052;-42
2023/08/27 00:49:17;;;;;;;31.00;20.98;;;;;;;19.12;75.04;101323.25;5093398;28;20044;-42
2023/08/27 00:51:46;;;;;;;27.33;20.05;;;;;;;19.34;74.97;101313.22;5093220;28;20033;-48
2023/08/27 00:54:13;;;;;;;31.30;21.05;;;;;;;19.11;75.13;101318.91;5093303;28;20028;-46
2023/08/27 00:56:44;;;;;;;28.08;19.85;;;;;;;19.18;75.32;101320.34;5107359;28;20015;-47
2023/08/27 00:59:13;;;;;;;30.38;19.83;;;;;;;19.09;75.10;101321.84;5096834;28;20019;-49
2023/08/27 01:01:42;;;;;;;26.33;19.95;;;;;;;19.07;75.25;101313.16;5093234;28;20384;-47
2023/08/27 01:04:09;;;;;;;28.02;19.98;;;;;;;19.02;75.71;101309.56;5092790;28;20458;-48
2023/08/27 01:06:35;;;;;;;24.23;19.15;;;;;;;19.01;75.89;101313.34;5092787;28;20035;-46
2023/08/27 01:09:21;;;;;;;26.10;19.50;;;;;;;18.85;76.16;101315.84;5092988;28;20050;-46
2023/08/27 01:12:09;;;;;;;28.00;19.88;;;;;;;18.88;76.82;101312.63;5075716;28;20031;-46
2023/08/27 01:14:37;;;;;;;33.13;20.13;;;;;;;18.82;77.54;101316.34;5072604;28;20107;-47
2023/08/27 01:17:05;;;;;;;31.25;20.10;;;;;;;18.72;77.33;101317.00;5072309;28;20037;-48
2023/08/27 01:19:33;;;;;;;30.13;21.13;;;;;;;18.46;78.75;101306.81;5072298;28;20032;-49
2023/08/27 01:21:59;;;;;;;30.77;21.63;;;;;;;18.66;77.91;101315.25;5072536;28;20046;-47
2023/08/27 01:24:25;;;;;;;27.88;21.73;;;;;;;18.39;79.01;101317.81;5074942;28;20024;-49
2023/08/27 01:27:23;;;;;;;31.25;21.83;;;;;;;18.39;79.19;101301.56;5082821;28;20037;-47
2023/08/27 01:30:13;;;;;;;32.15;20.73;;;;;;;18.30;79.18;101313.06;5079606;28;20141;-46
2023/08/27 01:32:47;;;;;;;35.72;22.08;;;;;;;18.23;79.62;101307.78;5081865;28;20040;-46
2023/08/27 01:35:15;;;;;;;35.15;20.95;;;;;;;18.30;79.42;101307.63;5072206;28;20051;-46
2023/08/27 01:37:42;;;;;;;33.05;22.27;;;;;;;18.20;80.15;101309.09;5071757;28;20430;-45
2023/08/27 01:40:08;;;;;;;33.75;21.33;;;;;;;18.15;79.79;101306.28;5072135;28;20032;-46
2023/08/27 01:42:36;;;;;;;30.83;22.17;;;;;;;18.32;79.56;101306.34;5072324;28;20035;-46
2023/08/27 01:45:04;;;;;;;29.77;21.60;;;;;;;18.46;78.88;101304.09;5070922;28;20028;-47
2023/08/27 01:47:30;;;;;;;33.72;21.73;;;;;;;18.62;78.30;101305.97;5085076;28;20272;-45
2023/08/27 01:49:56;;;;;;;29.48;21.23;;;;;;;18.47;78.37;101308.44;5092345;28;20077;-46
2023/08/27 01:52:23;;;;;;;29.60;21.00;;;;;;;18.40;78.85;101313.22;5092260;28;20044;-46
2023/08/27 01:54:49;;;;;;;31.92;21.85;;;;;;;18.25;79.31;101311.06;5086716;28;20032;-46
2023/08/27 01:57:15;;;;;;;33.03;21.75;;;;;;;18.18;79.56;101310.41;5070218;28;20027;-46
2023/08/27 01:59:41;;;;;;;31.83;21.42;;;;;;;18.20;80.35;101308.28;5070253;28;20360;-46
2023/08/27 02:02:08;;;;;;;37.00;22.95;;;;;;;17.96;81.45;101309.47;5072202;28;20111;-48
2023/08/27 02:04:34;;;;;;;29.80;21.38;;;;;;;18.19;81.06;101309.34;5082602;28;20098;-46
2023/08/27 02:07:00;;;;;;;34.15;23.10;;;;;;;18.05;81.71;101310.75;5071819;28;20066;-47
2023/08/27 02:09:26;;;;;;;37.33;22.75;;;;;;;17.93;83.00;101306.22;5078788;28;20059;-45
2023/08/27 02:11:53;;;;;;;33.67;22.20;;;;;;;18.11;81.85;101312.47;5091982;28;20024;-47
2023/08/27 02:14:19;;;;;;;36.15;22.73;;;;;;;18.14;81.84;101307.38;5091397;28;20431;-49
2023/08/27 02:16:45;;;;;;;31.58;21.48;;;;;;;18.09;81.63;101312.69;5087436;28;20480;-47
2023/08/27 02:19:12;;;;;;;34.08;23.00;;;;;;;17.76;83.52;101318.03;5074976;28;20115;-45
2023/08/27 02:21:38;;;;;;;30.75;22.58;;;;;;;17.67;83.84;101320.28;5084809;28;20474;-46
2023/08/27 02:24:04;;;;;;;33.88;23.60;;;;;;;17.53;84.92;101311.63;5077980;28;20016;-48
2023/08/27 02:26:31;;;;;;;31.52;22.45;;;;;;;17.58;84.98;101319.03;5071537;28;20052;-48
2023/08/27 02:28:57;;;;;;;32.92;21.83;;;;;;;17.74;83.88;101320.19;5083744;28;20127;-45
2023/08/27 02:31:23;;;;;;;32.63;22.20;;;;;;;17.53;85.15;101325.16;5091974;28;20016;-46
2023/08/27 02:33:49;;;;;;;30.70;22.33;;;;;;;17.51;84.94;101331.88;5090495;28;20416;-46
2023/08/27 02:36:16;;;;;;;33.78;22.90;;;;;;;17.22;86.22;101344.53;5089585;28;20108;-46
2023/08/27 02:38:42;;;;;;;35.50;22.77;;;;;;;17.14;86.48;101334.91;5085983;28;20378;-46
2023/08/27 02:41:08;;;;;;;32.63;23.05;;;;;;;17.14;86.85;101334.91;5091685;28;20093;-46
2023/08/27 02:43:34;;;;;;;39.83;22.60;;;;;;;17.11;87.49;101340.78;5091898;28;20024;-47
2023/08/27 02:46:02;;;;;;;36.00;22.13;;;;;;;17.12;87.31;101332.44;5095839;28;20100;-47
2023/08/27 02:48:28;;;;;;;35.20;23.17;;;;;;;16.92;88.13;101342.78;5112026;28;20032;-49
2023/08/27 02:50:54;;;;;;;31.70;21.67;;;;;;;16.77;89.25;101354.09;5111792;28;20062;-47
2023/08/27 02:53:20;;;;;;;40.70;23.58;;;;;;;16.79;88.85;101349.25;5112565;28;20035;-46
2023/08/27 02:55:47;;;;;;;32.85;21.08;;;;;;;16.82;88.91;101351.50;5097166;28;20031;-47
2023/08/27 02:58:13;;;;;;;35.67;23.05;;;;;;;16.58;90.03;101347.91;5095825;28;20626;-46
2023/08/27 03:00:40;;;;;;;36.17;22.13;;;;;;;16.57;90.25;101354.38;5095430;28;20067;-47
2023/08/27 03:03:09;;;;;;;31.05;20.60;;;;;;;16.76;89.60;101354.31;5095765;28;20035;-46
2023/08/27 03:05:36;;;;;;;32.70;21.17;;;;;;;16.67;90.29;101356.53;5095444;28;20047;-46
2023/08/27 03:08:02;;;;;;;41.38;23.95;;;;;;;16.62;90.34;101349.09;5095449;28;20120;-47
2023/08/27 03:10:28;;;;;;;35.15;21.73;;;;;;;16.56;91.20;101352.75;5095550;28;20036;-47
2023/08/27 03:12:54;;;;;;;33.05;21.67;;;;;;;16.48;91.75;101350.38;5088692;28;20110;-47
2023/08/27 03:15:20;;;;;;;32.97;22.67;;;;;;;16.44;91.57;101351.91;5074879;28;20050;-46
2023/08/27 03:17:47;;;;;;;30.13;21.10;;;;;;;16.58;90.95;101357.91;5075106;28;20497;-47
2023/08/27 03:20:13;;;;;;;31.02;23.02;;;;;;;16.32;92.53;101357.28;5074764;28;20031;-46
2023/08/27 03:22:39;;;;;;;37.53;21.75;;;;;;;16.40;92.04;101358.81;5074994;28;20078;-48
2023/08/27 03:25:06;;;;;;;29.92;21.63;;;;;;;16.26;92.73;101352.78;5074465;28;20035;-45
2023/08/27 03:27:35;;;;;;;31.67;21.05;;;;;;;16.34;92.26;101370.56;5074763;28;20383;-48
2023/08/27 03:30:03;;;;;;;30.52;21.73;;;;;;;16.30;92.33;101369.38;5092557;28;20470;-46
2023/08/27 03:32:30;;;;;;;30.90;21.30;;;;;;;16.31;92.30;101373.72;5095053;28;20470;-46
2023/08/27 03:34:56;;;;;;;39.08;22.73;;;;;;;16.21;92.66;101379.69;5094832;28;20028;-45
2023/08/27 03:37:22;;;;;;;34.65;21.60;;;;;;;16.30;92.11;101388.28;5094762;28;20020;-48
2023/08/27 03:39:49;;;;;;;29.83;20.63;;;;;;;16.18;93.14;101387.41;5094776;28;20082;-47
2023/08/27 03:42:15;;;;;;;34.25;22.23;;;;;;;16.18;92.75;101398.22;5094863;28;20028;-46
2023/08/27 03:44:41;;;;;;;37.05;22.52;;;;;;;16.21;92.85;101400.44;5094842;28;20044;-45
2023/08/27 03:47:07;;;;;;;30.73;21.65;;;;;;;16.15;93.04;101394.09;5094439;28;20059;-48
2023/08/27 03:49:34;;;;;;;32.65;22.27;;;;;;;16.16;92.63;101397.63;5094797;28;20103;-48
2023/08/27 03:52:00;;;;;;;31.02;21.52;;;;;;;16.11;92.87;101398.31;5094292;28;20048;-45
2023/08/27 03:54:27;;;;;;;38.60;22.02;;;;;;;16.21;91.85;101408.56;5094804;28;20028;-46
2023/08/27 03:56:54;;;;;;;39.75;23.05;;;;;;;16.14;92.15;101408.66;5094376;28;20027;-47
2023/08/27 03:59:20;;;;;;;32.17;21.58;;;;;;;16.06;92.50;101419.78;5094553;28;20127;-47
2023/08/27 04:01:47;;;;;;;29.45;20.52;;;;;;;16.07;92.48;101410.63;5094595;28;20030;-46
2023/08/27 04:04:13;;;;;;;31.10;20.67;;;;;;;15.98;92.34;101410.09;5094316;28;20020;-47
2023/08/27 04:06:39;;;;;;;27.38;19.42;;;;;;;16.07;91.93;101421.44;5093592;28;20034;-45
2023/08/27 04:09:05;;;;;;;32.40;21.77;;;;;;;15.95;91.94;101425.97;5093880;28;20453;-45
2023/08/27 04:11:32;;;;;;;30.17;21.10;;;;;;;16.06;91.22;101419.78;5094368;28;20056;-47
2023/08/27 04:13:58;;;;;;;28.83;19.23;;;;;;;16.04;91.06;101425.41;5079489;28;20625;-48
2023/08/27 04:16:24;;;;;;;27.55;18.65;;;;;;;16.14;90.53;101434.84;5073670;28;20111;-46
2023/08/27 04:18:51;;;;;;;31.42;19.80;;;;;;;16.06;90.70;101434.13;5073863;28;20501;-46
2023/08/27 04:21:17;;;;;;;31.10;20.13;;;;;;;15.95;91.20;101437.56;5093558;28;20024;-47
2023/08/27 04:23:43;;;;;;;32.67;20.42;;;;;;;16.01;91.14;101439.38;5094221;28;20024;-48
2023/08/27 04:26:09;;;;;;;30.88;19.92;;;;;;;16.17;90.20;101435.22;5093546;28;20035;-45
2023/08/27 04:28:37;;;;;;;29.73;19.33;;;;;;;16.03;90.75;101439.94;5094198;28;20478;-46
2023/08/27 04:31:03;;;;;;;35.35;19.80;;;;;;;15.92;91.39;101446.13;5093798;28;20110;-45
2023/08/27 04:33:29;;;;;;;28.65;19.67;;;;;;;15.85;91.65;101448.09;5093994;28;20355;-44
2023/08/27 04:35:55;;;;;;;28.45;19.25;;;;;;;16.03;90.77;101444.53;5093482;28;20020;-45
2023/08/27 04:38:22;;;;;;;33.50;21.00;;;;;;;15.94;91.06;101444.03;5093817;28;20027;-47
2023/08/27 04:40:52;;;;;;;33.70;21.10;;;;;;;15.96;91.17;101449.19;5093781;28;20055;-48
2023/08/27 04:43:18;;;;;;;30.95;18.33;;;;;;;16.03;90.40;101448.06;5093857;28;20020;-46
2023/08/27 04:45:44;;;;;;;24.40;19.35;;;;;;;16.01;91.19;101452.88;5093548;28;20028;-48
2023/08/27 04:48:11;;;;;;;29.65;19.35;;;;;;;15.81;92.86;101449.56;5094021;28;20054;-48
2023/08/27 04:50:38;;;;;;;30.58;19.98;;;;;;;15.86;92.21;101454.31;5093437;28;20101;-46
2023/08/27 04:53:04;;;;;;;32.92;18.73;;;;;;;15.85;92.51;101456.19;5093413;28;20028;-47
2023/08/27 04:55:31;;;;;;;28.27;18.80;;;;;;;15.93;91.47;101455.03;5093346;28;20103;-49
2023/08/27 04:57:57;;;;;;;32.22;19.13;;;;;;;15.91;91.91;101451.75;5093619;28;20024;-45
2023/08/27 05:00:23;;;;;;;27.70;18.95;;;;;;;15.85;91.84;101458.88;5093188;28;20036;-46
2023/08/27 05:02:50;;;;;;;31.33;19.02;;;;;;;15.80;92.15;101454.16;5093253;28;20107;-49
2023/08/27 05:05:17;;;;;;;28.42;17.20;;;;;;;15.93;91.11;101447.75;5093181;28;20095;-48
2023/08/27 05:07:43;;;;;;;30.52;18.08;;;;;;;15.97;90.43;101462.47;5093225;28;20032;-46
2023/08/27 05:10:10;;;;;;;24.20;17.80;;;;;;;15.82;91.46;101448.53;5092809;28;20032;-47
2023/08/27 05:12:36;;;;;;;27.85;17.67;;;;;;;15.81;91.44;101444.19;5088850;28;20054;-49
2023/08/27 05:15:03;;;;;;;25.00;17.27;;;;;;;15.89;91.37;101441.19;5072938;28;20207;-45
2023/08/27 05:17:30;;;;;;;22.63;16.88;;;;;;;15.92;91.04;101448.00;5072526;28;20474;-45
2023/08/27 05:19:57;;;;;;;27.80;19.13;;;;;;;15.66;92.44;101446.44;5072096;28;20024;-46
2023/08/27 05:22:23;;;;;;;26.95;18.92;;;;;;;15.73;92.18;101442.63;5072660;28;20024;-46
2023/08/27 05:24:49;;;;;;;25.73;17.73;;;;;;;15.71;91.73;101443.88;5072710;28;20032;-47
2023/08/27 05:27:15;;;;;;;26.00;17.42;;;;;;;15.79;91.88;101449.00;5074911;28;20118;-47
2023/08/27 05:29:42;;;;;;;26.92;19.90;;;;;;;15.83;91.74;101442.09;5093144;28;20032;-49
2023/08/27 05:32:08;;;;;;;25.42;17.92;;;;;;;15.73;91.77;101442.63;5092765;28;20032;-49
2023/08/27 05:34:36;;;;;;;31.30;18.80;;;;;;;15.77;91.77;101437.59;5092801;28;20381;-49
2023/08/27 05:37:03;;;;;;;29.52;19.95;;;;;;;15.93;91.73;101444.25;5101666;28;20122;-48
2023/08/27 05:39:29;;;;;;;24.13;17.52;;;;;;;15.83;92.14;101439.41;5113092;28;20070;-49
2023/08/27 05:41:56;;;;;;;28.98;20.42;;;;;;;15.78;92.48;101442.75;5112643;28;20473;-48
2023/08/27 05:44:22;;;;;;;27.83;20.02;;;;;;;15.79;92.54;101443.59;5109018;28;20516;-48
2023/08/27 05:46:49;;;;;;;25.15;19.42;;;;;;;15.88;92.18;101447.66;5092289;28;20429;-49
2023/08/27 05:49:15;;;;;;;29.60;20.02;;;;;;;15.92;92.04;101442.59;5092628;28;20036;-48
2023/08/27 05:51:41;;;;;;;30.70;20.77;;;;;;;15.90;91.70;101450.94;5092301;28;20462;-49
2023/08/27 05:54:07;;;;;;;33.63;21.83;;;;;;;15.78;91.81;101455.44;5092461;28;20016;-46
2023/08/27 05:56:33;;;;;;;32.25;21.42;;;;;;;15.68;92.14;101452.44;5091931;28;20085;-49
2023/08/27 05:59:00;;;;;;;34.00;21.42;;;;;;;15.75;91.32;101456.69;5092320;28;20047;-49
2023/08/27 06:01:26;;;;;;;39.30;22.98;;;;;;;15.69;91.60;101459.47;5092170;28;20028;-49
2023/08/27 06:03:52;;;;;;;33.38;22.02;;;;;;;15.62;92.00;101464.09;5092171;28;20051;-48
2023/08/27 06:06:18;;;;;;;31.05;21.75;;;;;;;15.66;91.39;101460.78;5092015;28;20028;-48
2023/08/27 06:08:45;;;;;;;30.63;20.98;;;;;;;15.64;91.33;101462.03;5092211;28;20569;-47
2023/08/27 06:11:11;;;;;;;33.15;22.05;;;;;;;15.35;92.87;101460.84;5092565;28;20102;-49
2023/08/27 06:13:37;;;;;;;31.90;21.50;;;;;;;15.47;92.32;101459.88;5079373;28;20053;-46
2023/08/27 06:16:03;;;;;;;28.63;20.63;;;;;;;15.41;93.00;101460.78;5071526;28;20039;-49
2023/08/27 06:18:29;;;;;;;33.92;21.30;;;;;;;15.39;92.76;101460.19;5076478;28;20182;-48
2023/08/27 06:20:56;;;;;;;26.48;20.08;;;;;;;15.49;92.08;101455.09;5091807;28;20114;-49
2023/08/27 06:23:22;;;;;;;28.33;20.35;;;;;;;15.29;93.08;101449.91;5092080;28;20028;-46
2023/08/27 06:25:48;;;;;;;29.55;19.40;;;;;;;15.39;92.98;101454.78;5091782;28;20035;-49
2023/08/27 06:28:15;;;;;;;29.92;19.60;;;;;;;15.48;92.32;101450.72;5091801;28;20035;-47
2023/08/27 06:30:44;;;;;;;27.77;20.23;;;;;;;15.44;92.57;101451.44;5091396;28;20043;-49
2023/08/27 06:33:11;;;;;;;30.45;20.33;;;;;;;15.30;93.23;101454.25;5091833;28;20415;-47
2023/08/27 06:35:37;;;;;;;32.47;19.33;;;;;;;15.43;93.18;101461.38;5091461;28;20028;-49
2023/08/27 06:38:04;;;;;;;32.35;20.30;;;;;;;15.44;93.11;101452.25;5091632;28;20020;-47
2023/08/27 06:40:31;;;;;;;28.52;19.20;;;;;;;15.39;93.60;101462.88;5091725;28;20034;-48
2023/08/27 06:42:57;;;;;;;31.13;19.88;;;;;;;15.40;94.32;101463.69;5091583;28;20028;-47
2023/08/27 06:45:23;;;;;;;29.38;19.17;;;;;;;15.41;94.41;101455.38;5091583;28;20028;-48
2023/08/27 06:47:49;;;;;;;29.63;19.05;;;;;;;15.45;94.19;101453.06;5091630;28;20032;-48
2023/08/27 06:50:15;;;;;;;27.83;18.73;;;;;;;15.48;93.93;101453.44;5091614;28;20035;-49
2023/08/27 06:52:42;;;;;;;26.52;16.27;;;;;;;15.56;94.06;101457.72;5091796;28;20032;-46
2023/08/27 06:55:10;;;;;;;25.17;15.65;;;;;;;15.67;93.75;101467.00;5091800;28;20093;-46
2023/08/27 06:57:37;;;;;;;25.33;13.85;;;;;;;15.61;94.63;101460.59;5091710;28;20482;-48
2023/08/27 07:00:08;;;;;;;21.83;15.13;;;;;;;15.77;94.25;101467.28;5091444;28;20035;-49
2023/08/27 07:02:34;;;;;;;23.35;14.45;;;;;;;15.72;94.78;101464.44;5091550;28;20119;-48
2023/08/27 07:05:01;;;;;;;21.55;15.32;;;;;;;15.65;95.06;101459.09;5091468;28;20039;-48
2023/08/27 07:07:27;;;;;;;23.85;15.05;;;;;;;15.65;94.47;101458.28;5091471;28;20024;-46
2023/08/27 07:09:53;;;;;;;24.27;15.40;;;;;;;15.74;94.24;101465.03;5091168;28;20459;-48
2023/08/27 07:12:19;;;;;;;21.27;14.95;;;;;;;15.73;94.23;101455.28;5090105;28;20032;-48
2023/08/27 07:14:45;;;;;;;27.20;16.55;;;;;;;15.76;94.43;101458.34;5071022;28;20394;-45
2023/08/27 07:17:14;;;;;;;26.45;15.98;;;;;;;15.56;95.00;101461.25;5071043;28;20032;-46
2023/08/27 07:19:41;;;;;;;24.58;15.98;;;;;;;15.64;93.85;101456.63;5071465;28;20033;-49
2023/08/27 07:22:08;;;;;;;24.25;16.00;;;;;;;15.55;94.26;101453.38;5071100;28;20542;-47
2023/08/27 07:24:34;;;;;;;24.08;16.13;;;;;;;15.61;93.71;101457.06;5071376;28;20067;-48
2023/08/27 07:27:00;;;;;;;23.73;16.17;;;;;;;15.56;93.68;101455.84;5079830;28;20056;-48
2023/08/27 07:29:27;;;;;;;23.48;16.05;;;;;;;15.55;93.52;101458.78;5091333;28;20435;-49
2023/08/27 07:31:54;;;;;;;19.85;13.95;;;;;;;15.70;93.47;101463.81;5091133;28;20024;-49
2023/08/27 07:34:21;;;;;;;24.67;13.68;;;;;;;15.67;93.96;101470.50;5091364;28;20153;-46
2023/08/27 07:36:47;;;;;;;23.23;15.18;;;;;;;15.72;94.13;101470.66;5091120;28;20069;-48
2023/08/27 07:39:14;;;;;;;18.50;13.43;;;;;;;15.79;93.56;101470.59;5108043;28;20024;-48
2023/08/27 07:41:40;;;;;;;20.55;13.57;;;;;;;15.82;92.60;101470.13;5112932;28;20043;-48
2023/08/27 07:44:07;;;;;;;23.20;13.88;;;;;;;15.86;91.99;101465.91;5104555;28;20031;-50
2023/08/27 07:46:33;;;;;;;21.98;13.95;;;;;;;15.75;92.46;101472.06;5095039;28;20528;-46
2023/08/27 07:48:59;;;;;;;19.48;14.35;;;;;;;15.70;92.74;101469.22;5094767;28;20489;-47
2023/08/27 07:51:25;;;;;;;19.00;14.23;;;;;;;15.72;92.73;101467.13;5094510;28;20093;-48
2023/08/27 07:53:52;;;;;;;20.90;14.02;;;;;;;15.62;93.05;101464.94;5094649;28;20047;-47
2023/08/27 07:56:18;;;;;;;22.17;14.02;;;;;;;15.62;93.69;101470.31;5094578;28;20026;-48
2023/08/27 07:58:44;;;;;;;22.13;14.52;;;;;;;15.64;93.65;101470.13;5094666;28;20056;-48
2023/08/27 08:01:11;;;;;;;20.38;13.48;;;;;;;15.61;93.73;101455.19;5094482;28;20511;-47
2023/08/27 08:03:37;;;;;;;21.40;13.75;;;;;;;15.75;92.23;101463.97;5094315;28;20371;-47
2023/08/27 08:06:04;;;;;;;18.75;13.75;;;;;;;15.69;92.66;101459.47;5094152;28;20190;-48
2023/08/27 08:08:31;;;;;;;20.58;13.90;;;;;;;15.64;93.06;101462.03;5094471;28;20034;-49
2023/08/27 08:10:57;;;;;;;17.67;13.18;;;;;;;15.62;92.18;101461.41;5094311;28;20362;-49
2023/08/27 08:13:24;;;;;;;23.77;13.52;;;;;;;15.51;93.08;101466.50;5083798;28;20024;-49
2023/08/27 08:15:50;;;;;;;19.60;13.77;;;;;;;15.40;93.84;101466.41;5073835;28;20096;-49
2023/08/27 08:18:17;;;;;;;21.90;13.02;;;;;;;15.48;94.12;101471.50;5085456;28;20094;-49
2023/08/27 08:20:43;;;;;;;17.80;13.07;;;;;;;15.57;92.63;101468.28;5094159;28;20032;-49
2023/08/27 08:23:09;;;;;;;20.98;13.57;;;;;;;15.54;92.53;101473.28;5094249;28;20107;-49
2023/08/27 08:25:37;;;;;;;19.77;14.25;;;;;;;15.65;91.99;101479.84;5093970;28;20474;-48
2023/08/27 08:28:04;;;;;;;21.70;14.00;;;;;;;15.51;92.77;101477.28;5093960;28;20085;-48
2023/08/27 08:30:30;;;;;;;23.50;14.88;;;;;;;15.41;93.85;101484.22;5093884;28;20115;-49
2023/08/27 08:32:56;;;;;;;22.23;13.73;;;;;;;15.49;93.90;101482.09;5094027;28;20099;-47
2023/08/27 08:35:22;;;;;;;20.20;14.48;;;;;;;15.39;94.45;101479.06;5093426;28;20397;-48
2023/08/27 08:37:49;;;;;;;23.13;14.45;;;;;;;15.48;93.79;101471.50;5093744;28;20092;-49
2023/08/27 08:40:16;;;;;;;22.45;14.80;;;;;;;15.49;93.79;101470.44;5094097;28;20035;-48
2023/08/27 08:42:56;;;;;;;23.23;14.65;;;;;;;15.44;94.27;101473.00;5093858;28;20043;-48
2023/08/27 08:46:05;;;;;;;20.80;14.40;;;;;;;15.43;94.07;101477.56;5093599;28;20030;-48
2023/08/27 08:48:40;;;;;;;21.83;14.63;;;;;;;15.44;94.18;101481.94;5011579;28;20022;-49
2023/08/27 08:51:08;;;;;;;20.63;14.65;;;;;;;15.42;93.97;101473.22;5082544;28;20101;-47
2023/08/27 08:53:41;;;;;;;21.05;14.40;;;;;;;15.48;93.89;101475.00;5093450;28;20535;-49
2023/08/27 08:56:19;;;;;;;23.00;14.95;;;;;;;15.36;94.72;101473.28;5093328;28;20047;-47
2023/08/27 08:58:54;;;;;;;26.20;15.70;;;;;;;15.40;94.55;101474.50;5093652;28;20027;-47
2023/08/27 09:01:21;;;;;;;21.65;14.10;;;;;;;15.44;94.61;101467.63;5093220;28;20039;-48
2023/08/27 09:03:49;;;;;;;23.02;15.25;;;;;;;15.43;94.27;101466.75;5093397;28;20044;-45
2023/08/27 09:06:23;;;;;;;24.05;15.57;;;;;;;15.37;95.09;101466.84;5093225;28;20493;-49
2023/08/27 09:08:52;;;;;;;25.88;16.08;;;;;;;15.34;95.22;101468.13;5093117;28;20032;-48
2023/08/27 09:11:22;;;;;;;22.70;16.38;;;;;;;15.43;94.67;101465.94;5093251;28;20024;-46
2023/08/27 09:13:48;;;;;;;24.95;17.08;;;;;;;15.32;94.41;101462.09;5079044;28;20029;-48
2023/08/27 09:16:15;;;;;;;25.42;16.92;;;;;;;15.44;93.90;101460.34;5072485;28;20032;-45
2023/08/27 09:18:41;;;;;;;24.85;15.85;;;;;;;15.19;95.77;101462.22;5072906;28;20028;-46
2023/08/27 09:21:08;;;;;;;22.35;14.30;;;;;;;15.29;95.17;101465.25;5072778;28;20028;-49
2023/08/27 09:23:37;;;;;;;22.30;13.82;;;;;;;15.33;95.10;101466.47;5072882;28;20025;-46
2023/08/27 09:26:07;;;;;;;16.17;12.40;;;;;;;15.29;95.18;101465.25;5081665;28;20032;-46
2023/08/27 09:28:35;;;;;;;19.45;12.35;;;;;;;15.28;95.28;101458.22;5093010;28;20048;-47
2023/08/27 09:31:02;;;;;;;21.23;13.48;;;;;;;15.28;95.20;101456.34;5093019;28;20031;-48
2023/08/27 09:33:40;;;;;;;17.52;12.65;;;;;;;15.39;94.52;101460.19;5092848;28;20024;-46
2023/08/27 09:36:07;;;;;;;20.35;13.68;;;;;;;15.29;94.29;101457.97;5092395;28;20084;-47
2023/08/27 09:38:36;;;;;;;20.65;14.00;;;;;;;15.23;94.80;101460.75;5092790;28;20073;-47
2023/08/27 09:41:15;;;;;;;18.23;13.07;;;;;;;15.29;95.33;101470.66;5092575;28;20036;-48
2023/08/27 09:43:54;;;;;;;19.30;12.18;;;;;;;15.28;95.61;101463.63;5092415;28;20363;-46
2023/08/27 09:46:21;;;;;;;20.05;12.60;;;;;;;15.21;96.12;101457.44;5092213;28;20402;-46
2023/08/27 09:48:58;;;;;;;18.73;13.23;;;;;;;15.16;96.66;101465.38;5092580;28;20020;-49
2023/08/27 09:51:26;;;;;;;19.42;12.77;;;;;;;15.18;96.70;101468.69;5092311;28;20044;-47
2023/08/27 09:53:52;;;;;;;21.60;13.80;;;;;;;15.13;96.94;101469.34;5092397;28;20024;-46
2023/08/27 09:56:23;;;;;;;19.27;13.57;;;;;;;15.16;96.17;101451.91;5092057;28;20637;-45
2023/08/27 09:58:50;;;;;;;20.55;14.20;;;;;;;15.17;95.74;101453.56;5092556;28;20028;-46
2023/08/27 10:01:18;;;;;;;25.77;17.38;;;;;;;15.21;94.65;101452.91;5091963;28;20035;-49
2023/08/27 10:03:47;;;;;;;20.60;14.25;;;;;;;15.20;95.24;101448.53;5092273;28;20024;-46
2023/08/27 10:06:14;;;;;;;23.83;14.27;;;;;;;15.23;95.77;101449.97;5091147;28;20024;-46
2023/08/27 10:08:53;;;;;;;21.25;13.05;;;;;;;15.23;96.14;101445.41;5092207;28;20031;-47
2023/08/27 10:11:22;;;;;;;16.92;12.25;;;;;;;15.17;96.24;101454.38;5092164;28;20055;-46
2023/08/27 10:13:48;;;;;;;18.98;12.15;;;;;;;15.32;95.35;101445.91;5077913;28;20467;-48
2023/08/27 10:16:15;;;;;;;20.85;13.48;;;;;;;15.26;96.29;101444.09;5074221;28;20080;-46
2023/08/27 10:18:42;;;;;;;18.40;13.10;;;;;;;15.26;96.37;101441.41;5092000;28;20024;-47
2023/08/27 10:21:08;;;;;;;23.25;12.70;;;;;;;15.34;95.98;101437.63;5091901;28;20642;-46
2023/08/27 10:23:38;;;;;;;22.00;12.65;;;;;;;15.42;95.43;101440.03;5092168;28;20028;-46
2023/08/27 10:26:05;;;;;;;20.73;12.13;;;;;;;15.40;94.76;101437.56;5091616;28;20020;-47
2023/08/27 10:28:35;;;;;;;17.73;12.88;;;;;;;15.38;95.33;101442.34;5091953;28;20031;-49
2023/08/27 10:31:03;;;;;;;20.50;12.38;;;;;;;15.29;95.50;101440.97;5092172;28;20371;-48
2023/08/27 10:33:30;;;;;;;21.08;12.88;;;;;;;15.40;95.10;101451.03;5091752;28;20057;-47
2023/08/27 10:36:02;;;;;;;16.70;12.02;;;;;;;15.40;95.33;101442.13;5091304;28;20134;-47
2023/08/27 10:38:30;;;;;;;16.55;11.77;;;;;;;15.38;95.61;101446.91;5092044;28;20061;-45
2023/08/27 10:40:56;;;;;;;21.08;12.63;;;;;;;15.46;95.34;101442.06;5091793;28;20464;-46
2023/08/27 10:43:23;;;;;;;18.77;12.15;;;;;;;15.50;95.25;101445.97;5091903;28;20043;-46
2023/08/27 10:45:50;;;;;;;21.92;13.50;;;;;;;15.52;95.08;101441.16;5091113;28;20024;-47
2023/08/27 10:48:25;;;;;;;21.60;13.18;;;;;;;15.53;95.18;101444.66;5091810;28;20024;-46
2023/08/27 10:50:55;;;;;;;17.83;13.10;;;;;;;15.47;95.06;101443.69;5091432;28;20052;-49
2023/08/27 10:53:23;;;;;;;20.35;12.85;;;;;;;15.49;94.84;101444.31;5091707;28;20066;-49
2023/08/27 10:55:53;;;;;;;19.02;12.27;;;;;;;15.35;95.66;101442.78;5091202;28;20036;-46
2023/08/27 10:58:21;;;;;;;18.33;13.00;;;;;;;15.51;94.60;101457.56;5091766;28;20020;-47
2023/08/27 11:01:13;;;;;;;17.60;11.80;;;;;;;15.45;94.44;101453.06;5091423;28;20090;-46
2023/08/27 11:03:58;;;;;;;17.20;12.25;;;;;;;15.43;94.97;101458.66;5091628;28;20450;-49
2023/08/27 11:06:40;;;;;;;21.63;12.55;;;;;;;15.45;95.16;101459.28;5091313;28;20035;-47
2023/08/27 11:09:29;;;;;;;19.48;13.13;;;;;;;15.37;95.49;101461.44;5091465;28;20027;-46
2023/08/27 11:12:00;;;;;;;21.65;14.32;;;;;;;15.44;95.09;101463.03;5091448;28;20470;-46